Time;durP1;ratioP1;P1;durP2;ratioP2;P2;SDS_P1;SDS_P2;PMS_P1;PMS_P2;Temp;Humidity;BMP_temperature;BMP_pressure;BME280_temperature;BME280_humidity;BME280_pressure;Samples;Min_cycle;Max_cycle;Signal;HPM_P1;HPM_P2
2023/12/05 00:02:56;;;;;;;31.08;17.67;;;;;;;-2.12;79.61;98166.00;10410866;28;20036;-49
2023/12/05 00:07:55;;;;;;;31.33;18.23;;;;;;;-2.13;79.42;98154.06;10409505;28;20036;-50
2023/12/05 00:12:54;;;;;;;36.90;19.42;;;;;;;-2.25;79.41;98138.13;10410029;28;20057;-49
2023/12/05 00:17:53;;;;;;;33.35;21.17;;;;;;;-1.98;78.92;98182.00;10409941;28;20035;-49
2023/12/05 00:22:52;;;;;;;18.80;11.68;;;;;;;-2.38;79.99;98189.94;10409954;28;20080;-50
2023/12/05 00:27:51;;;;;;;22.38;14.55;;;;;;;-2.27;79.87;98176.16;10407333;28;20639;-50
2023/12/05 00:32:50;;;;;;;23.23;14.15;;;;;;;-2.25;80.14;98166.97;10409404;28;20024;-50
2023/12/05 00:37:49;;;;;;;27.75;14.93;;;;;;;-2.17;79.99;98178.44;10409943;28;20040;-50
2023/12/05 00:42:48;;;;;;;19.52;13.40;;;;;;;-2.19;80.52;98209.66;10407624;28;20047;-50
2023/12/05 00:47:47;;;;;;;25.35;16.33;;;;;;;-2.62;82.04;98200.44;10408690;28;20032;-51
2023/12/05 00:52:46;;;;;;;23.92;13.23;;;;;;;-2.80;84.22;98229.91;10407225;28;20024;-52
2023/12/05 00:57:45;;;;;;;21.55;13.40;;;;;;;-2.70;83.19;98209.31;10407985;28;20111;-50
2023/12/05 01:02:44;;;;;;;24.52;13.95;;;;;;;-3.11;83.20;98159.50;10407424;28;20111;-50
2023/12/05 01:07:43;;;;;;;47.80;25.63;;;;;;;-3.25;85.04;98201.84;10405708;28;20285;-50
2023/12/05 01:12:42;;;;;;;19.85;12.55;;;;;;;-3.42;85.01;98172.91;10407965;28;20028;-50
2023/12/05 01:17:41;;;;;;;43.75;27.58;;;;;;;-3.12;83.61;98161.19;10404995;28;20044;-49
2023/12/05 01:22:40;;;;;;;25.92;15.93;;;;;;;-2.63;83.07;98201.25;10408409;28;20807;-50
2023/12/05 01:27:39;;;;;;;28.95;15.60;;;;;;;-2.58;82.56;98179.53;10407773;28;20514;-50
2023/12/05 01:32:39;;;;;;;34.60;17.73;;;;;;;-2.59;81.62;98144.75;10408670;28;20135;-50
2023/12/05 01:37:38;;;;;;;36.67;21.98;;;;;;;-2.45;81.50;98130.28;10407352;28;20147;-49
2023/12/05 01:42:38;;;;;;;31.40;19.42;;;;;;;-2.46;82.40;98142.91;10406004;28;20028;-50
2023/12/05 01:47:40;;;;;;;31.77;20.00;;;;;;;-2.25;81.67;98163.56;10405451;28;20055;-50
2023/12/05 01:52:41;;;;;;;28.40;17.25;;;;;;;-2.46;81.92;98110.72;10406036;28;20063;-51
2023/12/05 01:57:41;;;;;;;35.40;20.98;;;;;;;-2.34;81.39;98102.91;10405069;28;20143;-50
2023/12/05 02:02:41;;;;;;;21.20;15.07;;;;;;;-2.31;81.48;98103.09;10413399;28;20068;-50
2023/12/05 02:07:41;;;;;;;25.55;15.60;;;;;;;-2.42;81.08;98088.91;10412028;28;20541;-50
2023/12/05 02:12:40;;;;;;;28.70;17.42;;;;;;;-2.40;81.15;98082.25;10413432;28;20853;-50
2023/12/05 02:18:18;;;;;;;34.15;19.20;;;;;;;-2.23;81.28;98090.78;10412780;28;20514;-49
2023/12/05 02:23:23;;;;;;;29.13;18.55;;;;;;;-2.30;81.59;98095.53;10412897;28;20076;-50
2023/12/05 02:28:23;;;;;;;29.30;17.38;;;;;;;-2.45;81.78;98109.97;10412497;28;20060;-50
2023/12/05 02:33:22;;;;;;;27.13;15.85;;;;;;;-2.61;81.77;98092.97;10412726;28;20062;-50
2023/12/05 02:38:49;;;;;;;27.13;16.17;;;;;;;-2.58;81.50;98077.91;10412035;28;20028;-50
2023/12/05 02:43:53;;;;;;;20.42;13.40;;;;;;;-2.34;81.80;98108.00;10381022;28;20072;-50
2023/12/05 02:48:54;;;;;;;21.20;13.55;;;;;;;-2.31;81.12;98092.94;10411786;28;20497;-51
2023/12/05 02:53:53;;;;;;;22.77;13.20;;;;;;;-2.46;81.02;98066.66;10412424;28;20511;-50
2023/12/05 02:58:52;;;;;;;26.77;16.80;;;;;;;-2.49;80.54;98062.28;10411794;28;20728;-50
2023/12/05 03:03:51;;;;;;;24.38;15.77;;;;;;;-2.57;81.11;98069.50;10411803;28;20032;-50
2023/12/05 03:08:50;;;;;;;22.92;15.10;;;;;;;-3.01;81.72;98019.66;10411198;28;20559;-50
2023/12/05 03:13:49;;;;;;;28.08;16.35;;;;;;;-4.38;82.36;97833.47;10434358;28;20519;-50
2023/12/05 03:18:48;;;;;;;23.70;15.00;;;;;;;-2.79;82.59;98094.47;10451635;28;20509;-50
2023/12/05 03:23:47;;;;;;;20.95;14.02;;;;;;;-3.02;83.04;98057.63;10452316;28;20554;-50
2023/12/05 03:28:48;;;;;;;25.17;13.70;;;;;;;-2.80;82.82;98064.81;10452763;28;20681;-50
2023/12/05 03:33:47;;;;;;;34.20;17.35;;;;;;;-2.84;82.55;98055.25;10442213;28;20096;-50
2023/12/05 03:38:46;;;;;;;41.58;21.00;;;;;;;-2.96;82.35;98038.53;10410089;28;20481;-50
2023/12/05 03:43:45;;;;;;;36.92;19.73;;;;;;;-3.18;82.53;98000.03;10410543;28;20157;-50
2023/12/05 03:48:44;;;;;;;23.20;14.32;;;;;;;-3.61;83.23;97969.69;10409005;28;20031;-50
2023/12/05 03:53:43;;;;;;;25.15;14.55;;;;;;;-3.34;83.22;98018.63;10409728;28;20036;-50
2023/12/05 03:58:42;;;;;;;22.73;13.30;;;;;;;-3.43;84.16;98041.78;10409237;28;20020;-50
2023/12/05 04:03:41;;;;;;;25.55;16.02;;;;;;;-3.55;84.95;98064.78;10444777;28;20085;-50
2023/12/05 04:08:39;;;;;;;21.23;14.43;;;;;;;-3.78;84.74;98010.16;10450461;28;20032;-50
2023/12/05 04:13:38;;;;;;;29.83;16.30;;;;;;;-3.60;85.12;98070.34;10450424;28;20410;-50
2023/12/05 04:18:37;;;;;;;24.95;13.70;;;;;;;-3.49;83.99;98038.00;10449474;28;20034;-50
2023/12/05 04:23:36;;;;;;;22.90;13.40;;;;;;;-3.84;84.67;97989.50;10449467;28;20069;-50
2023/12/05 04:28:35;;;;;;;21.00;14.02;;;;;;;-3.26;84.05;98073.22;10448420;28;20531;-50
2023/12/05 04:33:34;;;;;;;23.67;14.25;;;;;;;-3.20;84.14;98035.50;10441889;28;20123;-50
2023/12/05 04:38:35;;;;;;;;;;;;;;;-2.88;83.88;98058.41;10407749;28;20112;-50
2023/12/05 04:43:34;;;;;;;24.90;14.80;;;;;;;-2.89;83.47;98028.75;10408432;28;19951;-51
2023/12/05 04:48:32;;;;;;;27.40;16.27;;;;;;;-2.79;82.96;98031.84;10407358;28;20422;-50
2023/12/05 04:53:31;;;;;;;41.75;24.52;;;;;;;-2.75;83.16;98012.59;10406892;28;20037;-50
2023/12/05 04:58:30;;;;;;;41.67;23.00;;;;;;;-2.91;82.84;98016.81;10407589;28;20112;-50
2023/12/05 05:03:29;;;;;;;41.17;24.95;;;;;;;-2.68;83.32;98041.75;10406040;28;20140;-53
2023/12/05 05:08:28;;;;;;;44.08;26.30;;;;;;;-2.60;82.82;98015.09;10405923;28;20055;-51
2023/12/05 05:13:27;;;;;;;43.03;23.48;;;;;;;-2.67;82.88;98010.47;10407041;28;20119;-50
2023/12/05 05:18:26;;;;;;;46.10;25.70;;;;;;;-2.55;82.37;98032.31;10446797;28;20035;-50
2023/12/05 05:23:25;;;;;;;32.80;20.33;;;;;;;-2.62;81.93;97997.22;10447178;28;20048;-50
2023/12/05 05:28:24;;;;;;;38.40;22.70;;;;;;;-2.68;81.88;98006.19;10441154;28;20485;-50
2023/12/05 05:33:24;;;;;;;35.60;20.15;;;;;;;-3.56;82.01;97855.03;10405919;28;20124;-50
2023/12/05 05:38:23;;;;;;;29.67;18.27;;;;;;;-2.51;82.65;98057.13;10405401;28;20126;-50
2023/12/05 05:43:22;;;;;;;39.97;24.23;;;;;;;-2.36;82.09;98049.47;10414614;28;20427;-50
2023/12/05 05:48:21;;;;;;;33.15;20.65;;;;;;;-2.51;81.29;98001.22;10414392;28;20104;-50
2023/12/05 05:53:20;;;;;;;24.52;15.73;;;;;;;-2.25;81.34;97996.66;10413206;28;20032;-50
2023/12/05 05:58:19;;;;;;;26.02;16.92;;;;;;;-1.91;80.59;98034.91;10413744;28;20039;-50
2023/12/05 06:03:18;;;;;;;30.98;19.67;;;;;;;-1.83;79.84;98009.84;10414778;28;20566;-50
2023/12/05 06:08:17;;;;;;;43.63;25.45;;;;;;;-1.72;79.82;98024.00;10413355;28;20814;-50
2023/12/05 06:13:16;;;;;;;52.15;30.00;;;;;;;-1.70;78.92;98002.06;10412612;28;20059;-50
2023/12/05 06:18:15;;;;;;;;;;;;;;;-1.51;77.76;98010.63;10431484;28;20206;-50
2023/12/05 06:23:14;;;;;;;46.17;27.13;;;;;;;-1.54;78.40;97965.53;10410557;28;19985;-50
2023/12/05 06:28:13;;;;;;;57.05;32.67;;;;;;;-1.67;77.99;97915.69;10412589;28;20099;-50
2023/12/05 06:33:12;;;;;;;63.38;38.72;;;;;;;-1.56;79.70;97961.16;10411513;28;20138;-51
2023/12/05 06:38:11;;;;;;;77.80;43.97;;;;;;;-1.61;79.63;97911.72;10428993;28;20362;-50
2023/12/05 06:43:10;;;;;;;67.03;35.75;;;;;;;-2.58;78.62;97718.81;10409301;28;20040;-50
2023/12/05 06:48:09;;;;;;;38.72;24.35;;;;;;;-1.67;78.15;97852.09;10412150;28;20020;-50
2023/12/05 06:53:08;;;;;;;55.72;33.80;;;;;;;-1.23;78.83;97921.22;10409977;28;20036;-50
2023/12/05 06:58:07;;;;;;;22.70;14.70;;;;;;;-1.54;79.61;97918.84;10406725;28;20515;-50
2023/12/05 07:03:06;;;;;;;19.30;12.65;;;;;;;-1.43;79.86;97938.06;10409957;28;20124;-51
2023/12/05 07:08:06;;;;;;;20.23;11.18;;;;;;;-1.52;80.30;97952.88;10411849;28;20032;-51
2023/12/05 07:13:06;;;;;;;21.52;11.40;;;;;;;-1.57;81.26;97944.16;10411930;28;20051;-50
2023/12/05 07:18:04;;;;;;;;;;;;;;;-1.24;80.36;97945.78;10412977;28;20056;-50
2023/12/05 07:23:03;;;;;;;23.27;13.45;;;;;;;-1.13;79.89;97932.69;10411172;28;19969;-50
2023/12/05 07:28:02;;;;;;;28.48;16.90;;;;;;;-0.65;78.41;97917.94;10411895;28;20028;-51
2023/12/05 07:33:01;;;;;;;24.13;13.85;;;;;;;-0.64;78.29;97904.41;10410685;28;20056;-49
2023/12/05 07:38:00;;;;;;;25.85;14.43;;;;;;;-0.47;77.52;97856.72;10410725;28;21510;-50
2023/12/05 07:42:59;;;;;;;50.13;25.67;;;;;;;-0.24;76.46;97927.44;10410613;28;20040;-50
2023/12/05 07:47:58;;;;;;;22.10;14.00;;;;;;;-0.37;76.30;97882.69;10411900;28;20465;-49
2023/12/05 07:52:57;;;;;;;26.73;15.85;;;;;;;0.06;76.27;97906.63;10410746;28;20055;-51
2023/12/05 07:57:56;;;;;;;24.42;14.07;;;;;;;0.39;75.27;97896.94;10409310;28;20029;-50
2023/12/05 08:02:55;;;;;;;23.63;14.73;;;;;;;0.33;74.60;97829.44;10407567;28;20037;-50
2023/12/05 08:07:54;;;;;;;38.17;18.90;;;;;;;0.56;72.24;97904.41;10410183;28;20430;-50
2023/12/05 08:12:53;;;;;;;37.45;22.80;;;;;;;-0.73;72.89;97720.53;10409036;28;20036;-50
2023/12/05 08:17:52;;;;;;;30.92;18.10;;;;;;;0.23;73.62;97960.91;10410993;28;20443;-51
2023/12/05 08:22:51;;;;;;;23.10;13.68;;;;;;;-0.20;74.02;97877.44;10408286;28;20056;-49
2023/12/05 08:27:50;;;;;;;25.45;13.18;;;;;;;0.40;74.33;97942.06;10408887;28;20032;-49
2023/12/05 08:32:49;;;;;;;23.20;13.00;;;;;;;0.66;74.22;97911.63;10408502;28;20586;-51
2023/12/05 08:37:47;;;;;;;36.40;18.00;;;;;;;1.00;74.57;97944.50;10407946;28;20107;-50
2023/12/05 08:42:46;;;;;;;27.73;15.77;;;;;;;1.32;73.88;97904.00;10407217;28;20028;-49
2023/12/05 08:47:45;;;;;;;25.25;14.50;;;;;;;1.71;72.92;97885.78;10408966;28;20025;-50
2023/12/05 08:52:44;;;;;;;22.48;13.77;;;;;;;1.73;70.39;97881.59;10407594;28;20028;-49
2023/12/05 08:57:43;;;;;;;30.52;16.15;;;;;;;1.86;68.74;97893.16;10407058;28;20115;-50
2023/12/05 09:02:42;;;;;;;39.72;23.42;;;;;;;1.80;68.07;97862.22;10407620;28;20040;-49
2023/12/05 09:07:41;;;;;;;37.75;25.98;;;;;;;2.02;67.68;97881.75;10407513;28;20031;-50
2023/12/05 09:12:40;;;;;;;54.08;35.45;;;;;;;2.23;68.19;97876.50;10407177;28;20425;-50
2023/12/05 09:17:39;;;;;;;53.10;34.58;;;;;;;2.40;68.88;97871.97;10405708;28;20037;-51
2023/12/05 09:22:38;;;;;;;49.95;31.13;;;;;;;2.33;68.05;97804.31;10405533;28;20043;-50
2023/12/05 09:27:37;;;;;;;46.85;32.67;;;;;;;2.80;66.47;97844.22;10423850;28;20046;-50
2023/12/05 09:32:36;;;;;;;45.78;31.88;;;;;;;3.22;66.86;97879.66;10404172;28;20051;-50
2023/12/05 09:37:35;;;;;;;44.60;30.23;;;;;;;3.64;67.02;97880.88;10402033;28;20035;-50
2023/12/05 09:42:35;;;;;;;43.72;29.38;;;;;;;3.53;65.40;97818.13;10397299;28;20950;-50
2023/12/05 09:47:35;;;;;;;32.53;23.52;;;;;;;3.86;64.11;97844.69;10398823;28;20502;-50
2023/12/05 09:52:35;;;;;;;34.17;23.17;;;;;;;3.91;62.92;97843.94;10405987;28;20821;-51
2023/12/05 09:57:36;;;;;;;32.80;20.13;;;;;;;3.82;62.87;97809.50;10406607;28;20123;-49
2023/12/05 10:02:37;;;;;;;33.75;22.17;;;;;;;3.95;62.65;97835.50;10405060;28;20056;-50
2023/12/05 10:07:37;;;;;;;38.75;26.45;;;;;;;3.81;63.43;97782.09;10408703;28;20059;-50
2023/12/05 10:12:36;;;;;;;35.22;21.95;;;;;;;4.08;62.21;97797.34;10410984;28;20696;-50
2023/12/05 10:17:35;;;;;;;23.02;14.57;;;;;;;4.03;62.38;97827.19;10402398;28;20533;-48
2023/12/05 10:22:34;;;;;;;46.55;33.58;;;;;;;3.97;63.12;97795.34;10407221;28;20501;-48
2023/12/05 10:27:33;;;;;;;;;;;;;;;4.12;63.63;97816.25;10413887;28;20051;-48
2023/12/05 10:32:32;;;;;;;26.35;16.73;;;;;;;3.85;64.04;97798.47;10413610;28;20015;-48
2023/12/05 10:37:31;;;;;;;28.20;20.10;;;;;;;2.86;63.79;97622.25;10412386;28;20778;-48
2023/12/05 10:42:30;;;;;;;33.92;25.15;;;;;;;3.81;64.60;97820.59;10413022;28;20036;-48
2023/12/05 10:47:29;;;;;;;26.55;17.73;;;;;;;4.11;65.69;97808.53;10415198;28;20052;-48
2023/12/05 10:52:31;;;;;;;26.05;16.83;;;;;;;4.43;64.71;97810.19;10414481;28;20043;-48
2023/12/05 10:57:33;;;;;;;20.20;14.80;;;;;;;4.33;63.23;97776.53;10412091;28;20123;-48
2023/12/05 11:02:32;;;;;;;21.13;14.80;;;;;;;4.28;63.33;97756.72;10417512;28;20052;-48
2023/12/05 11:07:31;;;;;;;31.77;22.20;;;;;;;4.91;61.05;97783.00;10414310;28;20078;-48
2023/12/05 11:12:31;;;;;;;25.05;18.17;;;;;;;4.36;60.43;97691.81;10409764;28;20071;-48
2023/12/05 11:17:38;;;;;;;37.78;23.10;;;;;;;4.77;60.43;97795.53;10412682;28;20119;-48
2023/12/05 11:22:56;;;;;;;30.98;21.35;;;;;;;4.66;60.96;97790.16;10412673;28;20072;-48
2023/12/05 11:28:16;;;;;;;28.17;18.05;;;;;;;4.32;62.14;97791.06;10444050;28;20051;-48
2023/12/05 11:33:34;;;;;;;;;;;;;;;4.39;63.03;97781.81;10412018;28;20044;-48
2023/12/05 11:38:33;;;;;;;28.48;17.55;;;;;;;4.46;62.74;97765.72;10410001;28;20031;-48
2023/12/05 11:43:32;;;;;;;27.92;17.92;;;;;;;4.53;63.15;97770.16;10412383;28;20060;-49
2023/12/05 11:48:33;;;;;;;26.83;17.45;;;;;;;3.85;64.10;97716.31;10409006;28;20021;-49
2023/12/05 11:53:32;;;;;;;25.17;16.88;;;;;;;4.01;64.51;97749.25;10409671;28;20159;-49
2023/12/05 11:58:35;;;;;;;24.95;14.13;;;;;;;4.16;64.90;97774.41;10410854;28;20124;-48
2023/12/05 12:03:50;;;;;;;20.77;14.02;;;;;;;4.25;65.03;97778.91;10412600;28;20075;-48
2023/12/05 12:08:53;;;;;;;25.30;14.80;;;;;;;4.20;64.73;97767.66;10409860;28;20104;-48
2023/12/05 12:13:52;;;;;;;25.35;15.55;;;;;;;3.37;64.77;97689.44;10412524;28;20062;-48
2023/12/05 12:18:51;;;;;;;31.70;16.08;;;;;;;3.69;64.99;97783.47;10410986;28;20032;-50
2023/12/05 12:23:55;;;;;;;23.65;15.82;;;;;;;3.79;64.86;97763.22;10406869;28;20131;-49
2023/12/05 12:28:55;;;;;;;27.00;16.65;;;;;;;4.03;64.38;97757.84;10404003;28;20475;-48
2023/12/05 12:33:56;;;;;;;29.88;17.60;;;;;;;4.24;63.95;97767.78;10409689;28;20088;-49
2023/12/05 12:38:56;;;;;;;32.15;19.15;;;;;;;4.05;64.10;97753.59;10406613;28;20147;-49
2023/12/05 12:43:55;;;;;;;29.83;17.33;;;;;;;3.92;64.34;97759.28;10409382;28;20056;-49
2023/12/05 12:48:56;;;;;;;33.25;20.13;;;;;;;3.70;64.40;97721.91;10406543;28;20463;-49
2023/12/05 12:53:55;;;;;;;28.73;17.67;;;;;;;3.55;63.95;97717.25;10407511;28;20056;-50
2023/12/05 12:58:58;;;;;;;30.15;17.77;;;;;;;3.54;63.93;97704.38;10408298;28;20051;-49
2023/12/05 13:03:58;;;;;;;28.88;17.48;;;;;;;3.52;65.04;97754.78;10404574;28;20115;-49
2023/12/05 13:08:57;;;;;;;31.40;19.42;;;;;;;3.06;65.29;97695.44;10405477;28;20111;-50
2023/12/05 13:13:56;;;;;;;27.33;17.52;;;;;;;2.79;65.86;97693.84;10408425;28;20028;-49
2023/12/05 13:18:55;;;;;;;29.33;17.40;;;;;;;3.04;65.98;97742.38;10404314;28;20998;-49
2023/12/05 13:23:54;;;;;;;29.38;18.05;;;;;;;2.82;66.63;97705.88;10407732;28;20076;-50
2023/12/05 13:28:54;;;;;;;28.67;17.13;;;;;;;3.00;67.34;97752.53;10408061;28;20068;-48
2023/12/05 13:33:53;;;;;;;36.67;20.67;;;;;;;2.74;67.05;97707.34;10404329;28;20115;-49
2023/12/05 13:38:53;;;;;;;;;;;;;;;3.01;67.14;97754.28;10405722;28;20120;-48
2023/12/05 13:43:52;;;;;;;46.13;25.75;;;;;;;2.80;67.64;97761.34;10405143;28;20042;-49
2023/12/05 13:48:51;;;;;;;44.58;26.58;;;;;;;2.66;68.30;97739.56;10405835;28;20059;-49
2023/12/05 13:53:50;;;;;;;46.25;26.13;;;;;;;2.53;68.33;97738.31;10406202;28;20034;-49
2023/12/05 13:58:49;;;;;;;;;;;;;;;2.39;70.14;97771.19;10406910;28;20452;-49
2023/12/05 14:03:48;;;;;;;44.13;26.33;;;;;;;2.40;69.76;97744.78;10414990;28;20399;-49
2023/12/05 14:08:47;;;;;;;49.97;31.02;;;;;;;2.37;70.18;97717.38;10414796;28;20748;-49
2023/12/05 14:13:46;;;;;;;46.22;25.05;;;;;;;2.56;69.86;97748.69;10436906;28;20036;-52
2023/12/05 14:18:45;;;;;;;36.88;22.85;;;;;;;2.64;69.33;97769.41;10455662;28;20012;-51
2023/12/05 14:23:44;;;;;;;37.85;20.60;;;;;;;2.51;70.01;97725.47;10455859;28;20131;-49
2023/12/05 14:28:43;;;;;;;49.45;28.30;;;;;;;2.45;69.53;97699.69;10455754;28;20119;-49
2023/12/05 14:33:43;;;;;;;51.65;28.73;;;;;;;2.74;69.46;97735.53;10446863;28;20032;-49
2023/12/05 14:38:42;;;;;;;53.75;32.42;;;;;;;2.48;69.84;97697.19;10411356;28;20060;-49
2023/12/05 14:43:41;;;;;;;62.95;34.45;;;;;;;2.46;70.56;97701.41;10409768;28;20111;-50
2023/12/05 14:48:40;;;;;;;70.18;37.03;;;;;;;1.29;70.84;97546.88;10413475;28;20127;-49
2023/12/05 14:53:39;;;;;;;70.63;37.60;;;;;;;2.52;70.61;97750.25;10412264;28;20502;-49
2023/12/05 14:58:38;;;;;;;83.85;44.72;;;;;;;1.77;71.23;97654.91;10409226;28;20507;-49
2023/12/05 15:03:37;;;;;;;42.28;23.25;;;;;;;1.96;71.81;97708.41;10406536;28;20074;-49
2023/12/05 15:08:37;;;;;;;56.22;32.13;;;;;;;2.02;72.20;97736.75;10412716;28;20115;-49
2023/12/05 15:13:36;;;;;;;49.00;26.05;;;;;;;2.12;72.48;97728.53;10412661;28;20553;-49
2023/12/05 15:18:35;;;;;;;42.85;25.52;;;;;;;1.39;72.88;97644.28;10408152;28;20558;-49
2023/12/05 15:23:34;;;;;;;70.30;37.90;;;;;;;1.94;73.30;97738.19;10408480;28;20076;-50
2023/12/05 15:28:37;;;;;;;56.40;30.20;;;;;;;1.73;73.12;97690.59;10407866;28;20032;-49
2023/12/05 15:33:36;;;;;;;49.05;25.38;;;;;;;1.30;73.62;97625.28;10409096;28;20485;-50
2023/12/05 15:38:37;;;;;;;62.45;36.13;;;;;;;1.71;73.43;97691.38;10407973;28;20151;-49
2023/12/05 15:43:36;;;;;;;61.58;30.67;;;;;;;1.69;73.77;97673.44;10409313;28;20135;-49
2023/12/05 15:48:36;;;;;;;61.10;31.60;;;;;;;2.00;73.62;97725.59;10409158;28;20119;-49
2023/12/05 15:53:35;;;;;;;70.38;40.05;;;;;;;1.46;73.14;97628.34;10407965;28;20115;-51
2023/12/05 15:58:34;;;;;;;59.92;32.60;;;;;;;1.48;73.73;97662.47;10408453;28;20060;-50
2023/12/05 16:03:34;;;;;;;56.88;25.95;;;;;;;1.21;74.09;97657.34;10408126;28;20675;-53
2023/12/05 16:08:33;;;;;;;57.22;25.70;;;;;;;0.96;74.85;97628.38;10409118;28;20056;-50
2023/12/05 16:13:32;;;;;;;43.53;26.15;;;;;;;1.31;75.66;97693.47;10451878;28;20038;-51
2023/12/05 16:18:31;;;;;;;51.75;27.98;;;;;;;1.36;75.48;97698.75;10415877;28;20064;-49
2023/12/05 16:23:29;;;;;;;45.42;25.35;;;;;;;1.31;76.39;97696.03;10409928;28;20079;-50
2023/12/05 16:28:28;;;;;;;57.58;29.25;;;;;;;1.31;76.14;97696.03;10441339;28;20122;-50
2023/12/05 16:33:27;;;;;;;54.28;28.95;;;;;;;1.18;76.01;97665.78;10443679;28;20024;-50
2023/12/05 16:38:26;;;;;;;62.88;30.42;;;;;;;0.88;76.37;97612.78;10409272;28;20028;-49
2023/12/05 16:43:25;;;;;;;50.85;25.52;;;;;;;1.25;76.27;97670.28;10408089;28;20048;-49
2023/12/05 16:48:24;;;;;;;42.58;21.80;;;;;;;1.22;76.80;97680.38;10408508;28;20115;-49
2023/12/05 16:53:23;;;;;;;51.97;27.02;;;;;;;1.20;76.76;97676.03;10408096;28;20028;-49
2023/12/05 16:58:22;;;;;;;57.88;32.70;;;;;;;1.19;76.93;97653.84;10408319;28;20135;-48
2023/12/05 17:03:21;;;;;;;56.85;27.27;;;;;;;1.05;77.36;97655.94;10408448;28;20035;-50
2023/12/05 17:08:20;;;;;;;51.10;26.40;;;;;;;0.89;77.32;97654.53;10408181;28;20059;-50
2023/12/05 17:13:19;;;;;;;56.97;29.80;;;;;;;0.78;77.79;97655.81;10408762;28;20020;-51
2023/12/05 17:18:18;;;;;;;60.97;33.58;;;;;;;0.60;77.89;97610.94;10407641;28;20127;-49
2023/12/05 17:23:17;;;;;;;57.35;30.90;;;;;;;0.44;77.78;97571.22;10408214;28;20055;-50
2023/12/05 17:28:16;;;;;;;;;;;;;;;0.86;79.02;97668.06;10408635;28;20484;-49
2023/12/05 17:33:15;;;;;;;61.78;34.45;;;;;;;0.81;78.52;97626.16;10415029;28;20011;-49
2023/12/05 17:38:14;;;;;;;47.90;23.13;;;;;;;0.94;78.27;97637.66;10449388;28;20056;-50
2023/12/05 17:43:13;;;;;;;48.92;23.30;;;;;;;1.06;78.09;97637.22;10449955;28;20031;-49
2023/12/05 17:48:12;;;;;;;54.45;28.38;;;;;;;1.14;77.75;97635.81;10414575;28;20875;-50
2023/12/05 17:53:11;;;;;;;47.38;25.10;;;;;;;1.23;77.69;97645.47;10408070;28;20536;-49
2023/12/05 17:58:10;;;;;;;47.85;25.48;;;;;;;1.23;77.89;97643.78;10407898;28;20043;-49
2023/12/05 18:03:09;;;;;;;;;;;;;;;1.40;77.51;97638.38;10407319;28;20056;-51
2023/12/05 18:08:08;;;;;;;63.28;34.53;;;;;;;0.99;77.37;97594.38;10407261;28;19912;-49
2023/12/05 18:13:07;;;;;;;59.88;34.28;;;;;;;1.18;77.03;97606.97;10407484;28;20028;-49
2023/12/05 18:18:06;;;;;;;52.45;29.60;;;;;;;1.14;77.16;97586.38;10429856;28;20109;-49
2023/12/05 18:23:05;;;;;;;55.83;29.80;;;;;;;1.47;76.87;97610.47;10410232;28;20040;-49
2023/12/05 18:28:04;;;;;;;54.20;27.00;;;;;;;1.49;76.70;97608.84;10406971;28;20024;-50
2023/12/05 18:33:03;;;;;;;60.92;33.85;;;;;;;1.47;76.24;97601.94;10404624;28;20893;-48
2023/12/05 18:38:02;;;;;;;61.17;31.83;;;;;;;1.62;76.50;97634.81;10406206;28;21009;-51
2023/12/05 18:43:01;;;;;;;73.68;41.40;;;;;;;1.40;76.26;97605.13;10407445;28;20552;-51
2023/12/05 18:48:00;;;;;;;51.80;27.25;;;;;;;1.31;75.92;97575.88;10408772;28;20108;-48
2023/12/05 18:52:59;;;;;;;52.83;28.05;;;;;;;1.68;75.80;97632.47;10413541;28;20056;-48
2023/12/05 18:57:58;;;;;;;52.55;28.15;;;;;;;1.42;76.05;97613.72;10414004;28;20527;-48
2023/12/05 19:02:57;;;;;;;46.78;28.67;;;;;;;1.37;76.62;97630.59;10412822;28;20680;-48
2023/12/05 19:07:58;;;;;;;53.85;28.52;;;;;;;1.35;76.71;97627.13;10413034;28;20032;-50
2023/12/05 19:12:57;;;;;;;60.20;30.80;;;;;;;0.03;76.62;97402.25;10413627;28;20055;-50
2023/12/05 19:17:56;;;;;;;81.47;40.45;;;;;;;1.17;76.60;97573.69;10412830;28;20055;-48
2023/12/05 19:22:56;;;;;;;58.72;31.27;;;;;;;1.40;76.36;97617.91;10413288;28;20037;-48
2023/12/05 19:27:55;;;;;;;59.97;31.58;;;;;;;1.40;77.05;97630.69;10412739;28;20056;-49
2023/12/05 19:32:55;;;;;;;64.65;34.30;;;;;;;1.18;77.54;97606.09;10412020;28;20059;-49
2023/12/05 19:37:54;;;;;;;57.85;29.48;;;;;;;1.20;77.97;97624.91;10411806;28;20597;-49
2023/12/05 19:42:53;;;;;;;59.05;30.17;;;;;;;0.84;78.21;97580.28;10411589;28;20124;-48
2023/12/05 19:47:52;;;;;;;49.60;25.38;;;;;;;1.00;78.01;97588.47;10411512;28;20028;-49
2023/12/05 19:52:51;;;;;;;51.78;26.80;;;;;;;1.27;78.24;97637.06;10411352;28;20075;-48
2023/12/05 19:57:50;;;;;;;80.35;51.70;;;;;;;0.12;78.19;97422.09;10409386;28;20071;-49
2023/12/05 20:02:49;;;;;;;43.80;24.25;;;;;;;1.11;78.78;97613.56;10411504;28;20035;-48
2023/12/05 20:07:48;;;;;;;65.78;33.35;;;;;;;0.88;78.23;97543.81;10410674;28;20111;-49
2023/12/05 20:12:47;;;;;;;53.80;28.95;;;;;;;1.37;78.01;97607.59;10410581;28;20037;-49
2023/12/05 20:17:46;;;;;;;59.30;29.73;;;;;;;1.35;78.33;97589.63;10431988;28;20474;-49
2023/12/05 20:22:45;;;;;;;64.43;33.47;;;;;;;1.45;78.04;97601.88;10439571;28;20522;-49
2023/12/05 20:27:45;;;;;;;62.17;32.45;;;;;;;1.36;77.82;97575.16;10409464;28;20067;-49
2023/12/05 20:32:44;;;;;;;68.72;31.85;;;;;;;1.50;77.71;97596.91;10410940;28;20052;-49
2023/12/05 20:37:43;;;;;;;57.75;30.63;;;;;;;1.62;76.60;97614.34;10409273;28;20036;-50
2023/12/05 20:42:42;;;;;;;55.65;30.08;;;;;;;1.37;77.86;97602.47;10409498;28;20060;-49
2023/12/05 20:47:42;;;;;;;55.70;29.73;;;;;;;1.20;77.66;97599.34;10409323;28;20056;-48
2023/12/05 20:52:41;;;;;;;60.60;30.52;;;;;;;1.21;78.10;97604.53;10409210;28;20494;-49
2023/12/05 20:57:40;;;;;;;53.85;29.40;;;;;;;0.78;78.50;97526.44;10408327;28;20115;-49
2023/12/05 21:02:39;;;;;;;58.00;29.25;;;;;;;1.27;77.96;97584.28;10431221;28;20028;-49
2023/12/05 21:07:43;;;;;;;49.55;28.63;;;;;;;1.31;78.09;97593.78;10424819;28;20134;-49
2023/12/05 21:12:41;;;;;;;57.88;31.02;;;;;;;1.28;78.46;97587.69;10407791;28;20044;-49
2023/12/05 21:17:40;;;;;;;55.28;29.48;;;;;;;1.03;78.42;97556.22;10408652;28;20024;-49
2023/12/05 21:22:39;;;;;;;61.15;31.63;;;;;;;1.24;78.29;97590.97;10408289;28;20033;-49
2023/12/05 21:27:38;;;;;;;56.47;29.95;;;;;;;1.06;78.65;97568.22;10408036;28;20036;-49
2023/12/05 21:32:37;;;;;;;59.33;28.40;;;;;;;1.24;78.85;97579.06;10409036;28;20048;-49
2023/12/05 21:37:36;;;;;;;49.17;23.92;;;;;;;1.19;78.87;97541.41;10407411;28;20036;-49
2023/12/05 21:42:35;;;;;;;46.67;23.45;;;;;;;1.27;78.80;97571.50;10407668;28;20039;-49
2023/12/05 21:47:34;;;;;;;44.22;21.90;;;;;;;1.31;78.89;97557.13;10449664;28;20159;-49
2023/12/05 21:52:33;;;;;;;52.03;24.92;;;;;;;0.75;79.04;97488.00;10449407;28;20031;-49
2023/12/05 21:57:32;;;;;;;58.30;29.55;;;;;;;0.85;79.93;97555.59;10448590;28;20067;-48
2023/12/05 22:02:31;;;;;;;54.30;26.95;;;;;;;0.98;80.11;97574.78;10448982;28;20296;-48
2023/12/05 22:07:30;;;;;;;;;;;;;;;0.95;80.16;97567.88;10447942;28;20631;-50
2023/12/05 22:12:29;;;;;;;52.65;25.98;;;;;;;0.71;79.88;97503.19;10447702;28;20069;-49
2023/12/05 22:17:28;;;;;;;56.72;29.40;;;;;;;0.92;79.77;97511.59;10447580;28;20110;-49
2023/12/05 22:22:27;;;;;;;72.32;33.83;;;;;;;0.92;79.57;97531.13;10451292;28;20039;-49
2023/12/05 22:27:26;;;;;;;71.10;36.95;;;;;;;0.76;79.71;97515.31;10455573;28;20042;-49
2023/12/05 22:32:25;;;;;;;62.17;28.85;;;;;;;0.83;80.14;97540.25;10456241;28;20020;-49
2023/12/05 22:37:24;;;;;;;60.83;29.65;;;;;;;0.71;80.73;97527.06;10415538;28;20055;-49
2023/12/05 22:42:23;;;;;;;85.75;39.72;;;;;;;0.56;81.20;97495.88;10413596;28;20028;-49
2023/12/05 22:47:22;;;;;;;72.47;33.08;;;;;;;0.75;80.80;97511.00;10414294;28;20135;-49
2023/12/05 22:52:21;;;;;;;69.18;35.17;;;;;;;0.59;80.83;97470.44;10413780;28;20111;-49
2023/12/05 22:57:19;;;;;;;69.72;33.05;;;;;;;0.60;80.78;97459.44;10413474;28;20029;-49